createdAt,value
2022-09-06T00:00:09.254Z,19.60
2022-09-06T00:02:38.279Z,19.60
2022-09-06T00:05:09.840Z,19.50
2022-09-06T00:07:38.492Z,19.50
2022-09-06T00:10:07.649Z,19.50
2022-09-06T00:12:36.476Z,19.50
2022-09-06T00:15:05.344Z,19.50
2022-09-06T00:17:33.881Z,19.40
2022-09-06T00:20:02.542Z,19.40
2022-09-06T00:22:32.389Z,19.40
2022-09-06T00:25:00.792Z,19.30
2022-09-06T00:27:29.280Z,19.30
2022-09-06T00:29:57.632Z,19.20
2022-09-06T00:32:26.118Z,19.20
2022-09-06T00:34:54.529Z,19.00
2022-09-06T00:37:22.856Z,19.00
2022-09-06T00:39:52.637Z,18.90
2022-09-06T00:42:20.990Z,18.90
2022-09-06T00:44:50.564Z,18.80
2022-09-06T00:47:19.262Z,18.80
2022-09-06T00:49:50.691Z,18.80
2022-09-06T00:52:20.395Z,18.80
2022-09-06T00:54:49.876Z,18.70
2022-09-06T00:57:20.023Z,18.70
2022-09-06T00:59:49.325Z,18.70
2022-09-06T01:02:17.765Z,18.70
2022-09-06T01:04:46.501Z,18.70
2022-09-06T01:07:23.465Z,18.70
2022-09-06T01:10:06.870Z,18.70
2022-09-06T01:12:49.755Z,18.70
2022-09-06T01:15:29.775Z,18.70
2022-09-06T01:18:10.200Z,18.70
2022-09-06T01:20:58.833Z,18.70
2022-09-06T01:24:06.329Z,18.70
2022-09-06T01:27:05.720Z,18.60
2022-09-06T01:29:41.705Z,18.70
2022-09-06T01:32:16.557Z,18.60
2022-09-06T01:34:50.004Z,18.60
2022-09-06T01:37:21.717Z,18.60
2022-09-06T01:39:50.143Z,18.60
2022-09-06T01:42:21.135Z,18.60
2022-09-06T01:44:54.106Z,18.60
2022-09-06T01:47:28.876Z,18.50
2022-09-06T01:50:12.367Z,18.50
2022-09-06T01:52:49.229Z,18.50
2022-09-06T01:55:27.777Z,18.50
2022-09-06T01:58:12.559Z,18.50
2022-09-06T02:00:49.979Z,18.50
2022-09-06T02:03:28.976Z,18.50
2022-09-06T02:06:00.801Z,18.40
2022-09-06T02:08:33.726Z,18.40
2022-09-06T02:11:04.649Z,18.40
2022-09-06T02:13:37.398Z,18.40
2022-09-06T02:16:09.560Z,18.30
2022-09-06T02:18:41.621Z,18.30
2022-09-06T02:21:11.803Z,18.20
2022-09-06T02:23:41.840Z,18.20
2022-09-06T02:26:13.657Z,18.10
2022-09-06T02:28:42.025Z,18.20
2022-09-06T02:31:17.736Z,18.10
2022-09-06T02:33:48.525Z,18.10
2022-09-06T02:36:17.034Z,18.10
2022-09-06T02:38:46.968Z,18.10
2022-09-06T02:41:18.565Z,18.10
2022-09-06T02:43:46.761Z,18.00
2022-09-06T02:46:17.044Z,18.00
2022-09-06T02:48:45.539Z,17.90
2022-09-06T02:51:13.961Z,17.80
2022-09-06T02:53:42.754Z,17.80
2022-09-06T02:56:11.213Z,17.80
2022-09-06T02:58:40.227Z,17.70
2022-09-06T03:01:09.208Z,17.70
2022-09-06T03:03:39.007Z,17.70
2022-09-06T03:06:07.717Z,17.70
2022-09-06T03:08:36.608Z,17.70
2022-09-06T03:11:04.831Z,17.70
2022-09-06T03:13:33.097Z,17.70
2022-09-06T03:16:01.956Z,17.60
2022-09-06T03:18:31.893Z,17.60
2022-09-06T03:21:02.066Z,17.60
2022-09-06T03:23:30.784Z,17.60
2022-09-06T03:25:59.301Z,17.60
2022-09-06T03:28:28.013Z,17.50
2022-09-06T03:30:56.440Z,17.50
2022-09-06T03:33:25.137Z,17.50
2022-09-06T03:35:55.267Z,17.40
2022-09-06T03:38:25.953Z,17.40
2022-09-06T03:40:54.698Z,17.50
2022-09-06T03:43:25.026Z,17.50
2022-09-06T03:45:55.145Z,17.50
2022-09-06T03:48:24.968Z,17.50
2022-09-06T03:50:55.491Z,17.50
2022-09-06T03:53:26.404Z,17.50
2022-09-06T03:55:56.159Z,17.50
2022-09-06T03:58:25.547Z,17.50
2022-09-06T04:01:03.774Z,17.50
2022-09-06T04:03:32.201Z,17.50
2022-09-06T04:06:00.370Z,17.50
2022-09-06T04:08:30.313Z,17.50
2022-09-06T04:10:59.839Z,17.50
2022-09-06T04:13:29.219Z,17.50
2022-09-06T04:15:57.534Z,17.50
2022-09-06T04:18:26.199Z,17.40
2022-09-06T04:20:56.405Z,17.50
2022-09-06T04:23:25.636Z,17.50
2022-09-06T04:25:56.726Z,17.40
2022-09-06T04:28:26.614Z,17.50
2022-09-06T04:30:57.464Z,17.50
2022-09-06T04:33:29.679Z,17.40
2022-09-06T04:35:59.627Z,17.40
2022-09-06T04:38:29.411Z,17.40
2022-09-06T04:40:59.416Z,17.40
2022-09-06T04:43:27.810Z,17.40
2022-09-06T04:45:56.172Z,17.40
2022-09-06T04:48:24.576Z,17.40
2022-09-06T04:50:52.939Z,17.40
2022-09-06T04:53:21.209Z,17.40
2022-09-06T04:55:49.591Z,17.40
2022-09-06T04:58:19.284Z,17.50
2022-09-06T05:00:47.947Z,17.40
2022-09-06T05:03:16.363Z,17.50
2022-09-06T05:05:44.698Z,17.50
2022-09-06T05:08:13.157Z,17.50
2022-09-06T05:10:41.446Z,17.50
2022-09-06T05:13:09.798Z,17.50
2022-09-06T05:15:39.709Z,17.50
2022-09-06T05:18:08.067Z,17.50
2022-09-06T05:20:37.198Z,17.50
2022-09-06T05:23:05.489Z,17.50
2022-09-06T05:25:33.765Z,17.60
2022-09-06T05:28:01.875Z,17.60
2022-09-06T05:30:30.101Z,17.60
2022-09-06T05:32:59.910Z,17.60
2022-09-06T05:35:28.012Z,17.60
2022-09-06T05:37:56.314Z,17.70
2022-09-06T05:40:24.543Z,17.70
2022-09-06T05:42:52.712Z,17.70
2022-09-06T05:45:21.399Z,17.80
2022-09-06T05:47:49.753Z,17.80
2022-09-06T05:50:19.670Z,17.80
2022-09-06T05:52:48.226Z,17.90
2022-09-06T05:55:16.635Z,17.90
2022-09-06T05:57:44.940Z,18.00
2022-09-06T06:00:14.701Z,18.00
2022-09-06T06:02:43.042Z,18.00
2022-09-06T06:05:11.435Z,18.00
2022-09-06T06:07:41.388Z,18.10
2022-09-06T06:10:10.562Z,18.10
2022-09-06T06:12:38.885Z,18.20
2022-09-06T06:15:08.025Z,18.20
2022-09-06T06:17:36.274Z,18.30
2022-09-06T06:20:05.018Z,18.30
2022-09-06T06:22:33.322Z,18.40
2022-09-06T06:25:03.260Z,18.40
2022-09-06T06:27:34.108Z,18.50
2022-09-06T06:30:02.308Z,18.50
2022-09-06T06:32:30.487Z,18.60
2022-09-06T06:34:58.866Z,18.70
2022-09-06T06:37:27.108Z,18.70
2022-09-06T06:39:55.661Z,18.80
2022-09-06T06:42:25.408Z,18.80
2022-09-06T06:44:54.045Z,18.90
2022-09-06T06:47:22.308Z,18.90
2022-09-06T06:49:50.580Z,19.00
2022-09-06T06:52:21.464Z,19.00
2022-09-06T06:54:50.271Z,19.10
2022-09-06T06:57:18.489Z,19.10
2022-09-06T06:59:48.214Z,19.20
2022-09-06T07:02:17.863Z,19.20
2022-09-06T07:04:46.160Z,19.30
2022-09-06T07:12:46.520Z,19.50
2022-09-06T07:15:16.388Z,19.60
2022-09-06T07:17:44.880Z,19.60
2022-09-06T07:20:13.980Z,19.70
2022-09-06T07:22:43.145Z,19.70
2022-09-06T07:25:14.447Z,19.70
2022-09-06T07:30:16.087Z,19.90
2022-09-06T07:32:44.386Z,20.00
2022-09-06T07:35:14.051Z,20.10
2022-09-06T07:37:42.662Z,20.10
2022-09-06T07:40:12.183Z,20.30
2022-09-06T07:42:40.567Z,20.40
2022-09-06T07:45:10.037Z,20.50
2022-09-06T07:53:23.298Z,20.90
2022-09-06T07:56:00.418Z,21.00
2022-09-06T07:58:30.210Z,21.10
2022-09-06T08:01:17.394Z,21.20
2022-09-06T08:03:48.493Z,21.10
2022-09-06T08:06:16.848Z,21.20
2022-09-06T08:09:01.176Z,21.40
2022-09-06T08:11:31.219Z,21.60
2022-09-06T08:14:02.812Z,21.90
2022-09-06T08:16:33.001Z,22.20
2022-09-06T08:19:04.349Z,22.40
2022-09-06T08:21:35.207Z,22.70
2022-09-06T08:24:05.315Z,22.90
2022-09-06T08:26:35.965Z,23.40
2022-09-06T08:29:06.856Z,23.60
2022-09-06T08:31:37.165Z,24.30
2022-09-06T08:34:06.933Z,25.00
2022-09-06T08:36:35.793Z,25.40
2022-09-06T08:39:06.114Z,26.00
2022-09-06T08:41:41.580Z,26.60
2022-09-06T08:47:04.646Z,27.50
2022-09-06T08:49:38.224Z,28.20
2022-09-06T08:52:54.459Z,28.90
2022-09-06T08:55:37.761Z,29.60
2022-09-06T08:58:17.579Z,30.00
2022-09-06T09:00:51.713Z,30.00
2022-09-06T09:03:25.135Z,30.30
2022-09-06T09:05:55.353Z,30.40
2022-09-06T09:08:27.432Z,30.60
2022-09-06T09:10:59.830Z,30.90
2022-09-06T09:13:35.062Z,31.00
2022-09-06T09:16:03.802Z,30.60
2022-09-06T09:18:35.258Z,30.40
2022-09-06T09:21:05.882Z,30.80
2022-09-06T09:23:34.493Z,31.10
2022-09-06T09:26:07.201Z,31.50
2022-09-06T09:28:35.907Z,31.60
2022-09-06T09:31:06.773Z,31.80
2022-09-06T09:33:38.690Z,31.70
2022-09-06T09:36:11.267Z,32.20
2022-09-06T09:38:44.115Z,32.70
2022-09-06T09:41:25.328Z,33.00
2022-09-06T09:44:04.211Z,33.40
2022-09-06T09:46:34.367Z,33.40
2022-09-06T09:49:06.664Z,33.10
2022-09-06T09:51:40.360Z,32.00
2022-09-06T09:54:10.627Z,31.50
2022-09-06T09:56:43.871Z,31.50
2022-09-06T09:59:25.162Z,31.40
2022-09-06T10:01:56.612Z,32.10
2022-09-06T10:04:48.780Z,32.60
2022-09-06T10:07:21.070Z,32.90
2022-09-06T10:09:51.012Z,33.60
2022-09-06T10:12:28.583Z,33.80
2022-09-06T10:14:57.794Z,34.00
2022-09-06T10:17:32.069Z,34.00
2022-09-06T10:20:03.648Z,34.10
2022-09-06T10:22:36.533Z,34.30
2022-09-06T10:25:39.793Z,34.20
2022-09-06T10:28:31.798Z,34.00
2022-09-06T10:31:18.829Z,33.80
2022-09-06T10:33:57.893Z,33.90
2022-09-06T10:36:33.269Z,34.00
2022-09-06T10:39:10.368Z,33.90
2022-09-06T10:42:02.606Z,33.80
2022-09-06T10:44:46.847Z,33.90
2022-09-06T10:47:16.834Z,33.60
2022-09-06T10:49:47.814Z,33.70
2022-09-06T10:52:22.325Z,34.10
2022-09-06T10:54:53.025Z,34.10
2022-09-06T11:00:14.692Z,33.70
2022-09-06T11:02:48.962Z,34.00
2022-09-06T11:11:07.716Z,34.30
2022-09-06T11:13:35.912Z,34.10
2022-09-06T11:16:10.603Z,34.20
2022-09-06T11:18:43.280Z,34.20
2022-09-06T11:21:38.574Z,34.20
2022-09-06T11:24:13.418Z,34.30
2022-09-06T11:26:56.540Z,34.30
2022-09-06T11:29:27.190Z,33.50
2022-09-06T11:34:54.932Z,34.00
2022-09-06T11:37:29.192Z,34.30
2022-09-06T11:40:29.405Z,34.70
2022-09-06T11:43:20.231Z,35.10
2022-09-06T11:45:51.072Z,34.90
2022-09-06T11:48:35.429Z,34.80
2022-09-06T11:51:07.873Z,34.80
2022-09-06T11:53:57.888Z,34.80
2022-09-06T11:56:32.707Z,34.80
2022-09-06T11:59:09.633Z,34.20
2022-09-06T12:01:41.032Z,34.30
2022-09-06T12:04:12.433Z,34.40
2022-09-06T12:06:42.952Z,34.60
2022-09-06T12:09:31.584Z,34.70
2022-09-06T12:12:01.141Z,34.50
2022-09-06T12:14:42.553Z,34.40
2022-09-06T12:17:28.795Z,34.10
2022-09-06T12:20:07.146Z,33.70
2022-09-06T12:22:59.381Z,33.30
2022-09-06T12:25:52.620Z,33.20
2022-09-06T12:28:47.317Z,33.20
2022-09-06T12:31:25.606Z,33.30
2022-09-06T12:33:54.957Z,33.30
2022-09-06T12:36:29.931Z,33.20
2022-09-06T12:39:00.428Z,33.40
2022-09-06T12:41:30.658Z,33.30
2022-09-06T12:44:02.950Z,33.40
2022-09-06T12:46:34.943Z,33.40
2022-09-06T12:49:05.972Z,33.10
2022-09-06T12:51:34.926Z,32.80
2022-09-06T12:54:05.325Z,32.70
2022-09-06T12:56:35.195Z,33.00
2022-09-06T12:59:17.345Z,33.30
2022-09-06T13:01:53.647Z,33.40
2022-09-06T13:04:32.496Z,33.60
2022-09-06T13:07:02.143Z,33.50
2022-09-06T13:09:34.684Z,33.40
2022-09-06T13:12:09.371Z,33.30
2022-09-06T13:14:39.197Z,33.20
2022-09-06T13:17:09.064Z,33.10
2022-09-06T13:19:39.303Z,33.00
2022-09-06T13:22:11.184Z,33.00
2022-09-06T13:24:47.270Z,32.90
2022-09-06T13:27:28.164Z,32.70
2022-09-06T13:29:57.930Z,32.60
2022-09-06T13:32:28.535Z,32.60
2022-09-06T13:34:58.780Z,32.80
2022-09-06T13:37:28.400Z,32.80
2022-09-06T13:39:57.713Z,32.80
2022-09-06T13:42:28.936Z,32.60
2022-09-06T13:45:01.933Z,32.60
2022-09-06T13:47:31.904Z,32.30
2022-09-06T13:50:00.441Z,32.20
2022-09-06T13:52:29.426Z,32.20
2022-09-06T13:54:57.759Z,32.20
2022-09-06T13:57:26.177Z,32.30
2022-09-06T13:59:54.633Z,32.30
2022-09-06T14:02:25.078Z,32.30
2022-09-06T14:04:54.889Z,32.10
2022-09-06T14:07:23.230Z,32.00
2022-09-06T14:09:51.744Z,31.90
2022-09-06T14:12:20.136Z,31.70
2022-09-06T14:14:48.702Z,31.50
2022-09-06T14:17:17.171Z,31.30
2022-09-06T14:20:01.056Z,31.20
2022-09-06T14:22:29.419Z,31.20
2022-09-06T14:24:57.693Z,31.10
2022-09-06T14:27:26.382Z,31.10
2022-09-06T14:29:54.753Z,30.90
2022-09-06T14:32:23.153Z,30.80
2022-09-06T14:34:51.617Z,30.60
2022-09-06T14:37:22.053Z,30.60
2022-09-06T14:39:50.549Z,30.50
2022-09-06T14:42:19.036Z,30.40
2022-09-06T14:44:47.470Z,30.40
2022-09-06T14:47:16.904Z,30.40
2022-09-06T14:49:45.399Z,30.30
2022-09-06T14:52:16.816Z,30.10
2022-09-06T14:55:02.767Z,29.90
2022-09-06T14:57:31.280Z,29.80
2022-09-06T15:00:00.840Z,29.60
2022-09-06T15:02:29.819Z,29.60
2022-09-06T15:05:15.480Z,29.40
2022-09-06T15:08:01.918Z,29.40
2022-09-06T15:11:20.877Z,29.20
2022-09-06T15:13:49.456Z,29.10
2022-09-06T15:16:32.720Z,29.00
2022-09-06T15:19:22.971Z,28.70
2022-09-06T15:21:57.366Z,28.70
2022-09-06T15:24:26.314Z,28.70
2022-09-06T15:26:56.976Z,28.50
2022-09-06T15:29:27.031Z,28.40
2022-09-06T15:31:55.440Z,28.40
2022-09-06T15:34:26.118Z,28.40
2022-09-06T15:36:56.773Z,28.40
2022-09-06T15:39:25.463Z,28.30
2022-09-06T15:41:57.224Z,28.30
2022-09-06T15:44:26.467Z,28.10
2022-09-06T15:46:57.692Z,28.00
2022-09-06T15:49:33.353Z,27.90
2022-09-06T15:52:03.629Z,27.70
2022-09-06T15:54:49.262Z,27.60
2022-09-06T15:57:19.368Z,27.50
2022-09-06T15:59:47.962Z,27.40
2022-09-06T16:02:19.319Z,27.30
2022-09-06T16:04:47.768Z,27.20
2022-09-06T16:07:53.781Z,27.20
2022-09-06T16:10:22.184Z,27.10
2022-09-06T16:12:57.522Z,27.00
2022-09-06T16:15:36.098Z,26.90
2022-09-06T16:18:05.578Z,26.80
2022-09-06T16:20:33.888Z,26.70
2022-09-06T16:23:02.259Z,26.70
2022-09-06T16:25:32.166Z,26.60
2022-09-06T16:28:02.683Z,26.50
2022-09-06T16:30:31.228Z,26.40
2022-09-06T16:32:59.679Z,26.30
2022-09-06T16:36:03.104Z,26.20
2022-09-06T16:38:31.904Z,26.10
2022-09-06T16:41:01.157Z,26.00
2022-09-06T16:43:35.234Z,26.00
2022-09-06T16:46:05.478Z,25.90
2022-09-06T16:48:34.316Z,25.80
2022-09-06T16:51:11.404Z,25.80
2022-09-06T16:53:41.707Z,25.70
2022-09-06T16:56:10.714Z,25.70
2022-09-06T16:58:41.986Z,25.60
2022-09-06T17:01:11.445Z,25.60
2022-09-06T17:03:47.229Z,25.40
2022-09-06T17:06:16.408Z,25.40
2022-09-06T17:08:45.629Z,25.30
2022-09-06T17:11:16.254Z,25.20
2022-09-06T17:13:49.022Z,25.10
2022-09-06T17:17:15.440Z,25.10
2022-09-06T17:20:15.872Z,24.90
2022-09-06T17:22:44.301Z,24.90
2022-09-06T17:25:13.953Z,24.90
2022-09-06T17:27:42.259Z,24.80
2022-09-06T17:30:13.401Z,24.70
2022-09-06T17:32:41.823Z,24.60
2022-09-06T17:35:10.417Z,24.50
2022-09-06T17:37:38.780Z,24.30
2022-09-06T17:40:08.386Z,24.30
2022-09-06T17:42:37.183Z,24.20
2022-09-06T17:45:05.905Z,24.20
2022-09-06T17:47:36.175Z,24.10
2022-09-06T17:50:06.827Z,24.00
2022-09-06T17:52:39.109Z,23.90
2022-09-06T17:55:08.479Z,23.80
2022-09-06T17:57:37.207Z,23.70
2022-09-06T18:00:14.093Z,23.70
2022-09-06T18:02:44.523Z,23.70
2022-09-06T18:05:12.946Z,23.60
2022-09-06T18:07:42.079Z,23.50
2022-09-06T18:10:11.270Z,23.50
2022-09-06T18:12:39.686Z,23.40
2022-09-06T18:15:09.207Z,23.40
2022-09-06T18:17:37.725Z,23.40
2022-09-06T18:20:09.415Z,23.30
2022-09-06T18:22:39.703Z,23.20
2022-09-06T18:25:09.079Z,23.20
2022-09-06T18:27:37.410Z,23.10
2022-09-06T18:30:06.384Z,23.00
2022-09-06T18:32:34.774Z,23.00
2022-09-06T18:35:03.330Z,22.90
2022-09-06T18:37:36.302Z,22.90
2022-09-06T18:40:05.253Z,22.90
2022-09-06T18:42:34.560Z,22.90
2022-09-06T18:45:03.026Z,22.90
2022-09-06T18:47:31.391Z,22.80
2022-09-06T18:50:00.308Z,22.70
2022-09-06T18:52:28.643Z,22.60
2022-09-06T18:55:54.943Z,22.60
2022-09-06T18:58:33.789Z,22.60
2022-09-06T19:01:45.571Z,22.60
2022-09-06T19:04:40.229Z,22.50
2022-09-06T19:07:08.621Z,22.50
2022-09-06T19:09:37.196Z,22.50
2022-09-06T19:12:07.616Z,22.40
2022-09-06T19:14:43.126Z,22.40
2022-09-06T19:17:11.658Z,22.40
2022-09-06T19:19:57.165Z,22.40
2022-09-06T19:22:48.261Z,22.40
2022-09-06T19:25:16.857Z,22.30
2022-09-06T19:27:48.665Z,22.10
2022-09-06T19:30:20.007Z,22.10
2022-09-06T19:32:48.950Z,22.10
2022-09-06T19:35:18.813Z,22.10
2022-09-06T19:37:47.845Z,21.90
2022-09-06T19:40:16.335Z,21.90
2022-09-06T19:42:54.373Z,21.90
2022-09-06T19:45:24.308Z,21.90
2022-09-06T19:47:52.713Z,21.90
2022-09-06T19:50:21.050Z,21.90
2022-09-06T19:52:49.640Z,21.80
2022-09-06T19:55:18.212Z,21.80
2022-09-06T19:57:46.809Z,21.80
2022-09-06T20:00:16.912Z,21.80
2022-09-06T20:02:47.226Z,21.70
2022-09-06T20:05:17.094Z,21.70
2022-09-06T20:07:45.554Z,21.70
2022-09-06T20:10:13.896Z,21.70
2022-09-06T20:12:42.471Z,21.70
2022-09-06T20:15:12.271Z,21.70
2022-09-06T20:17:40.879Z,21.60
2022-09-06T20:20:12.285Z,21.60
2022-09-06T20:22:40.626Z,21.50
2022-09-06T20:25:09.781Z,21.50
2022-09-06T20:27:42.546Z,21.40
2022-09-06T20:30:31.814Z,21.40
2022-09-06T20:36:35.277Z,21.40
2022-09-06T20:39:04.111Z,21.30
2022-09-06T20:41:33.901Z,21.30
2022-09-06T20:44:02.930Z,21.30
2022-09-06T20:46:33.469Z,21.30
2022-09-06T20:49:04.747Z,21.30
2022-09-06T20:51:35.714Z,21.20
2022-09-06T20:54:05.648Z,21.20
2022-09-06T20:56:35.819Z,21.20
2022-09-06T20:59:07.621Z,21.20
2022-09-06T21:01:37.719Z,21.10
2022-09-06T21:04:08.055Z,21.10
2022-09-06T21:06:49.779Z,21.00
2022-09-06T21:09:18.238Z,21.00
2022-09-06T21:11:46.863Z,20.90
2022-09-06T21:14:15.731Z,20.90
2022-09-06T21:16:44.024Z,20.90
2022-09-06T21:19:13.304Z,20.90
2022-09-06T21:21:43.631Z,20.80
2022-09-06T21:24:13.016Z,20.80
2022-09-06T21:26:43.857Z,20.80
2022-09-06T21:29:12.886Z,20.80
2022-09-06T21:31:41.350Z,20.80
2022-09-06T21:34:16.988Z,20.80
2022-09-06T21:36:47.205Z,20.70
2022-09-06T21:39:16.240Z,20.70
2022-09-06T21:41:45.852Z,20.70
2022-09-06T21:44:14.643Z,20.70
2022-09-06T21:46:43.576Z,20.70
2022-09-06T21:49:14.057Z,20.70
2022-09-06T21:51:42.943Z,20.70
2022-09-06T21:54:12.918Z,20.60
2022-09-06T21:56:41.786Z,20.60
2022-09-06T21:59:11.122Z,20.60
2022-09-06T22:01:40.711Z,20.60
2022-09-06T22:04:09.477Z,20.50
2022-09-06T22:06:37.942Z,20.50
2022-09-06T22:09:10.910Z,20.50
2022-09-06T22:11:42.824Z,20.40
2022-09-06T22:14:12.772Z,20.50
2022-09-06T22:16:42.302Z,20.40
2022-09-06T22:19:11.529Z,20.30
2022-09-06T22:21:40.735Z,20.30
2022-09-06T22:24:11.048Z,20.30
2022-09-06T22:26:42.090Z,20.30
2022-09-06T22:29:12.391Z,20.30
2022-09-06T22:31:41.325Z,20.30
2022-09-06T22:34:10.472Z,20.20
2022-09-06T22:36:39.000Z,20.30
2022-09-06T22:39:07.952Z,20.20
2022-09-06T22:41:36.610Z,20.20
2022-09-06T22:44:07.396Z,20.10
2022-09-06T22:46:35.843Z,20.00
2022-09-06T22:49:05.508Z,20.00
2022-09-06T22:51:34.255Z,20.00
2022-09-06T22:54:02.735Z,20.00
2022-09-06T22:56:31.137Z,20.00
2022-09-06T22:59:00.977Z,20.00
2022-09-06T23:01:32.856Z,20.00
2022-09-06T23:04:01.285Z,20.00
2022-09-06T23:06:29.847Z,20.00
2022-09-06T23:08:58.285Z,19.90
2022-09-06T23:11:27.764Z,19.90
2022-09-06T23:13:57.673Z,19.80
2022-09-06T23:16:27.606Z,19.80
2022-09-06T23:18:57.922Z,19.70
2022-09-06T23:21:27.652Z,19.70
2022-09-06T23:23:57.389Z,19.70
2022-09-06T23:26:30.417Z,19.60
2022-09-06T23:28:58.834Z,19.60
2022-09-06T23:31:29.383Z,19.60
2022-09-06T23:34:01.130Z,19.60
2022-09-06T23:36:29.624Z,19.60
2022-09-06T23:38:58.730Z,19.60
2022-09-06T23:41:27.325Z,19.60
2022-09-06T23:43:56.137Z,19.60
2022-09-06T23:46:24.551Z,19.60
2022-09-06T23:48:52.813Z,19.50
2022-09-06T23:51:22.826Z,19.50
2022-09-06T23:53:51.229Z,19.50
2022-09-06T23:56:20.828Z,19.40
2022-09-06T23:58:49.341Z,19.50
